sensor_id;sensor_type;location;lat;lon;timestamp;P1;durP1;ratioP1;P2;durP2;ratioP2
27543;SDS011;17996;51.056;3.656;2023-06-14T00:00:47;12.48;;;5.65;;
27543;SDS011;17996;51.056;3.656;2023-06-14T00:03:14;12.35;;;5.80;;
27543;SDS011;17996;51.056;3.656;2023-06-14T00:05:42;8.27;;;5.20;;
27543;SDS011;17996;51.056;3.656;2023-06-14T00:08:08;9.55;;;5.82;;
27543;SDS011;17996;51.056;3.656;2023-06-14T00:10:35;14.63;;;5.60;;
27543;SDS011;17996;51.056;3.656;2023-06-14T00:13:02;12.68;;;5.75;;
27543;SDS011;17996;51.056;3.656;2023-06-14T00:15:29;14.23;;;5.55;;
27543;SDS011;17996;51.056;3.656;2023-06-14T00:17:56;11.65;;;6.38;;
27543;SDS011;17996;51.056;3.656;2023-06-14T00:20:25;13.32;;;6.50;;
27543;SDS011;17996;51.056;3.656;2023-06-14T00:22:55;10.95;;;5.95;;
27543;SDS011;17996;51.056;3.656;2023-06-14T00:25:22;14.55;;;6.00;;
27543;SDS011;17996;51.056;3.656;2023-06-14T00:27:50;12.18;;;5.90;;
27543;SDS011;17996;51.056;3.656;2023-06-14T00:30:16;12.48;;;6.07;;
27543;SDS011;17996;51.056;3.656;2023-06-14T00:32:42;15.32;;;5.50;;
27543;SDS011;17996;51.056;3.656;2023-06-14T00:35:09;18.42;;;6.53;;
27543;SDS011;17996;51.056;3.656;2023-06-14T00:37:35;11.07;;;6.65;;
27543;SDS011;17996;51.056;3.656;2023-06-14T00:40:01;11.57;;;5.60;;
27543;SDS011;17996;51.056;3.656;2023-06-14T00:42:28;12.20;;;6.15;;
27543;SDS011;17996;51.056;3.656;2023-06-14T00:44:53;9.38;;;5.47;;
27543;SDS011;17996;51.056;3.656;2023-06-14T00:47:19;9.93;;;6.07;;
27543;SDS011;17996;51.056;3.656;2023-06-14T00:49:45;14.13;;;6.00;;
27543;SDS011;17996;51.056;3.656;2023-06-14T00:52:13;7.80;;;5.47;;
27543;SDS011;17996;51.056;3.656;2023-06-14T00:54:40;14.82;;;6.10;;
27543;SDS011;17996;51.056;3.656;2023-06-14T00:57:07;13.70;;;6.15;;
27543;SDS011;17996;51.056;3.656;2023-06-14T00:59:33;18.23;;;6.43;;
27543;SDS011;17996;51.056;3.656;2023-06-14T01:02:03;8.05;;;6.43;;
27543;SDS011;17996;51.056;3.656;2023-06-14T01:04:29;12.20;;;6.72;;
27543;SDS011;17996;51.056;3.656;2023-06-14T01:12:36;14.35;;;7.10;;
27543;SDS011;17996;51.056;3.656;2023-06-14T01:15:24;16.83;;;6.82;;
27543;SDS011;17996;51.056;3.656;2023-06-14T01:17:51;10.85;;;6.43;;
27543;SDS011;17996;51.056;3.656;2023-06-14T01:20:19;11.95;;;6.32;;
27543;SDS011;17996;51.056;3.656;2023-06-14T01:22:53;13.57;;;6.30;;
27543;SDS011;17996;51.056;3.656;2023-06-14T01:25:22;16.63;;;6.63;;
27543;SDS011;17996;51.056;3.656;2023-06-14T01:30:25;10.60;;;6.22;;
27543;SDS011;17996;51.056;3.656;2023-06-14T01:32:51;13.00;;;6.82;;
27543;SDS011;17996;51.056;3.656;2023-06-14T01:35:18;17.55;;;6.55;;
27543;SDS011;17996;51.056;3.656;2023-06-14T01:37:44;9.02;;;6.25;;
27543;SDS011;17996;51.056;3.656;2023-06-14T01:40:13;13.93;;;7.38;;
27543;SDS011;17996;51.056;3.656;2023-06-14T01:42:40;13.25;;;7.13;;
27543;SDS011;17996;51.056;3.656;2023-06-14T01:45:07;16.30;;;6.82;;
27543;SDS011;17996;51.056;3.656;2023-06-14T01:47:35;11.07;;;6.72;;
27543;SDS011;17996;51.056;3.656;2023-06-14T01:50:02;16.33;;;7.05;;
27543;SDS011;17996;51.056;3.656;2023-06-14T01:52:29;17.33;;;7.60;;
27543;SDS011;17996;51.056;3.656;2023-06-14T01:54:54;15.95;;;6.82;;
27543;SDS011;17996;51.056;3.656;2023-06-14T01:57:20;11.57;;;6.82;;
27543;SDS011;17996;51.056;3.656;2023-06-14T01:59:47;13.82;;;7.10;;
27543;SDS011;17996;51.056;3.656;2023-06-14T02:02:13;15.35;;;7.22;;
27543;SDS011;17996;51.056;3.656;2023-06-14T02:04:40;11.57;;;7.10;;
27543;SDS011;17996;51.056;3.656;2023-06-14T02:07:06;18.15;;;7.88;;
27543;SDS011;17996;51.056;3.656;2023-06-14T02:09:33;13.23;;;7.82;;
27543;SDS011;17996;51.056;3.656;2023-06-14T02:12:00;12.38;;;7.18;;
27543;SDS011;17996;51.056;3.656;2023-06-14T02:14:26;13.95;;;7.80;;
27543;SDS011;17996;51.056;3.656;2023-06-14T02:16:52;14.88;;;7.47;;
27543;SDS011;17996;51.056;3.656;2023-06-14T02:19:19;11.55;;;7.30;;
27543;SDS011;17996;51.056;3.656;2023-06-14T02:21:45;19.10;;;8.32;;
27543;SDS011;17996;51.056;3.656;2023-06-14T02:24:12;17.77;;;7.72;;
27543;SDS011;17996;51.056;3.656;2023-06-14T02:26:38;12.23;;;7.75;;
27543;SDS011;17996;51.056;3.656;2023-06-14T02:29:05;13.20;;;7.82;;
27543;SDS011;17996;51.056;3.656;2023-06-14T02:31:31;18.73;;;7.38;;
27543;SDS011;17996;51.056;3.656;2023-06-14T02:33:57;16.63;;;7.75;;
27543;SDS011;17996;51.056;3.656;2023-06-14T02:36:23;19.75;;;7.57;;
27543;SDS011;17996;51.056;3.656;2023-06-14T02:38:49;13.82;;;7.97;;
27543;SDS011;17996;51.056;3.656;2023-06-14T02:41:15;11.77;;;7.47;;
27543;SDS011;17996;51.056;3.656;2023-06-14T02:43:41;16.35;;;7.57;;
27543;SDS011;17996;51.056;3.656;2023-06-14T02:46:07;13.57;;;7.00;;
27543;SDS011;17996;51.056;3.656;2023-06-14T02:48:33;11.68;;;7.30;;
27543;SDS011;17996;51.056;3.656;2023-06-14T02:50:59;14.25;;;6.97;;
27543;SDS011;17996;51.056;3.656;2023-06-14T02:53:24;14.25;;;6.88;;
27543;SDS011;17996;51.056;3.656;2023-06-14T02:55:50;12.70;;;7.13;;
27543;SDS011;17996;51.056;3.656;2023-06-14T02:58:17;11.13;;;7.50;;
27543;SDS011;17996;51.056;3.656;2023-06-14T03:00:44;13.77;;;8.57;;
27543;SDS011;17996;51.056;3.656;2023-06-14T03:03:09;10.90;;;7.15;;
27543;SDS011;17996;51.056;3.656;2023-06-14T03:05:41;15.18;;;7.97;;
27543;SDS011;17996;51.056;3.656;2023-06-14T03:08:11;14.25;;;7.68;;
27543;SDS011;17996;51.056;3.656;2023-06-14T03:10:50;11.88;;;7.97;;
27543;SDS011;17996;51.056;3.656;2023-06-14T03:13:16;14.05;;;7.18;;
27543;SDS011;17996;51.056;3.656;2023-06-14T03:15:42;13.45;;;7.95;;
27543;SDS011;17996;51.056;3.656;2023-06-14T03:18:08;12.55;;;7.70;;
27543;SDS011;17996;51.056;3.656;2023-06-14T03:20:34;16.60;;;7.93;;
27543;SDS011;17996;51.056;3.656;2023-06-14T03:23:02;13.70;;;7.57;;
27543;SDS011;17996;51.056;3.656;2023-06-14T03:25:28;12.75;;;7.75;;
27543;SDS011;17996;51.056;3.656;2023-06-14T03:28:00;14.25;;;7.60;;
27543;SDS011;17996;51.056;3.656;2023-06-14T03:30:27;17.58;;;7.20;;
27543;SDS011;17996;51.056;3.656;2023-06-14T03:32:53;9.68;;;6.38;;
27543;SDS011;17996;51.056;3.656;2023-06-14T03:35:20;13.02;;;7.35;;
27543;SDS011;17996;51.056;3.656;2023-06-14T03:37:46;15.82;;;7.72;;
27543;SDS011;17996;51.056;3.656;2023-06-14T03:40:13;11.73;;;6.97;;
27543;SDS011;17996;51.056;3.656;2023-06-14T03:42:41;9.05;;;6.68;;
27543;SDS011;17996;51.056;3.656;2023-06-14T03:45:07;14.82;;;6.78;;
27543;SDS011;17996;51.056;3.656;2023-06-14T03:47:34;15.10;;;6.65;;
27543;SDS011;17996;51.056;3.656;2023-06-14T03:50:00;12.43;;;6.50;;
27543;SDS011;17996;51.056;3.656;2023-06-14T03:52:27;12.70;;;6.63;;
27543;SDS011;17996;51.056;3.656;2023-06-14T03:54:53;12.80;;;6.53;;
27543;SDS011;17996;51.056;3.656;2023-06-14T03:57:19;11.20;;;7.10;;
27543;SDS011;17996;51.056;3.656;2023-06-14T04:02:13;10.18;;;6.55;;
27543;SDS011;17996;51.056;3.656;2023-06-14T04:04:42;10.20;;;6.07;;
27543;SDS011;17996;51.056;3.656;2023-06-14T04:07:13;10.63;;;5.60;;
27543;SDS011;17996;51.056;3.656;2023-06-14T04:09:39;11.50;;;6.35;;
27543;SDS011;17996;51.056;3.656;2023-06-14T04:12:05;11.77;;;6.45;;
27543;SDS011;17996;51.056;3.656;2023-06-14T04:14:33;10.57;;;7.55;;
27543;SDS011;17996;51.056;3.656;2023-06-14T04:16:59;14.60;;;6.90;;
27543;SDS011;17996;51.056;3.656;2023-06-14T04:19:25;8.50;;;6.65;;
27543;SDS011;17996;51.056;3.656;2023-06-14T04:21:51;15.38;;;6.72;;
27543;SDS011;17996;51.056;3.656;2023-06-14T04:24:16;15.80;;;7.35;;
27543;SDS011;17996;51.056;3.656;2023-06-14T04:26:42;13.02;;;6.05;;
27543;SDS011;17996;51.056;3.656;2023-06-14T04:29:16;11.77;;;6.13;;
27543;SDS011;17996;51.056;3.656;2023-06-14T04:31:45;10.98;;;5.95;;
27543;SDS011;17996;51.056;3.656;2023-06-14T04:34:11;18.67;;;6.60;;
27543;SDS011;17996;51.056;3.656;2023-06-14T04:36:43;10.77;;;6.03;;
27543;SDS011;17996;51.056;3.656;2023-06-14T04:39:14;10.52;;;6.55;;
27543;SDS011;17996;51.056;3.656;2023-06-14T04:41:44;13.27;;;6.20;;
27543;SDS011;17996;51.056;3.656;2023-06-14T04:44:10;12.38;;;6.88;;
27543;SDS011;17996;51.056;3.656;2023-06-14T04:46:38;9.98;;;6.30;;
27543;SDS011;17996;51.056;3.656;2023-06-14T04:49:09;16.75;;;6.45;;
27543;SDS011;17996;51.056;3.656;2023-06-14T04:51:35;9.65;;;6.70;;
27543;SDS011;17996;51.056;3.656;2023-06-14T04:54:02;10.40;;;6.45;;
27543;SDS011;17996;51.056;3.656;2023-06-14T04:56:29;8.63;;;5.88;;
27543;SDS011;17996;51.056;3.656;2023-06-14T04:58:55;16.75;;;6.53;;
27543;SDS011;17996;51.056;3.656;2023-06-14T05:01:21;14.85;;;6.53;;
27543;SDS011;17996;51.056;3.656;2023-06-14T05:03:48;15.15;;;5.72;;
27543;SDS011;17996;51.056;3.656;2023-06-14T05:06:14;11.18;;;6.22;;
27543;SDS011;17996;51.056;3.656;2023-06-14T05:08:41;13.90;;;6.07;;
27543;SDS011;17996;51.056;3.656;2023-06-14T05:11:06;14.82;;;6.80;;
27543;SDS011;17996;51.056;3.656;2023-06-14T05:13:32;10.95;;;6.50;;
27543;SDS011;17996;51.056;3.656;2023-06-14T05:15:59;12.57;;;5.90;;
27543;SDS011;17996;51.056;3.656;2023-06-14T05:18:25;20.38;;;7.03;;
27543;SDS011;17996;51.056;3.656;2023-06-14T05:20:51;15.25;;;6.70;;
27543;SDS011;17996;51.056;3.656;2023-06-14T05:23:17;34.20;;;8.15;;
27543;SDS011;17996;51.056;3.656;2023-06-14T05:25:43;14.85;;;7.03;;
27543;SDS011;17996;51.056;3.656;2023-06-14T05:28:10;20.70;;;7.50;;
27543;SDS011;17996;51.056;3.656;2023-06-14T05:30:37;19.20;;;7.10;;
27543;SDS011;17996;51.056;3.656;2023-06-14T05:33:03;25.45;;;7.40;;
27543;SDS011;17996;51.056;3.656;2023-06-14T05:35:29;17.73;;;7.88;;
27543;SDS011;17996;51.056;3.656;2023-06-14T05:37:55;17.85;;;7.28;;
27543;SDS011;17996;51.056;3.656;2023-06-14T05:40:20;18.10;;;6.53;;
27543;SDS011;17996;51.056;3.656;2023-06-14T05:42:46;18.25;;;7.05;;
27543;SDS011;17996;51.056;3.656;2023-06-14T05:45:11;19.58;;;6.82;;
27543;SDS011;17996;51.056;3.656;2023-06-14T05:47:37;20.02;;;7.00;;
27543;SDS011;17996;51.056;3.656;2023-06-14T05:50:03;18.83;;;7.50;;
27543;SDS011;17996;51.056;3.656;2023-06-14T05:52:29;15.35;;;7.85;;
27543;SDS011;17996;51.056;3.656;2023-06-14T05:54:55;13.23;;;7.55;;
27543;SDS011;17996;51.056;3.656;2023-06-14T05:57:20;19.05;;;7.95;;
27543;SDS011;17996;51.056;3.656;2023-06-14T05:59:46;22.48;;;7.90;;
27543;SDS011;17996;51.056;3.656;2023-06-14T06:02:12;22.80;;;7.25;;
27543;SDS011;17996;51.056;3.656;2023-06-14T06:04:37;12.50;;;7.22;;
27543;SDS011;17996;51.056;3.656;2023-06-14T06:07:03;17.58;;;7.07;;
27543;SDS011;17996;51.056;3.656;2023-06-14T06:09:30;17.98;;;6.97;;
27543;SDS011;17996;51.056;3.656;2023-06-14T06:11:56;10.98;;;7.40;;
27543;SDS011;17996;51.056;3.656;2023-06-14T06:14:21;13.98;;;6.85;;
27543;SDS011;17996;51.056;3.656;2023-06-14T06:16:47;13.57;;;7.68;;
27543;SDS011;17996;51.056;3.656;2023-06-14T06:19:13;15.40;;;8.52;;
27543;SDS011;17996;51.056;3.656;2023-06-14T06:21:40;25.40;;;7.47;;
27543;SDS011;17996;51.056;3.656;2023-06-14T06:24:05;16.60;;;7.88;;
27543;SDS011;17996;51.056;3.656;2023-06-14T06:26:31;15.32;;;6.85;;
27543;SDS011;17996;51.056;3.656;2023-06-14T06:29:00;16.40;;;7.65;;
27543;SDS011;17996;51.056;3.656;2023-06-14T06:33:55;15.98;;;8.93;;
27543;SDS011;17996;51.056;3.656;2023-06-14T06:36:21;13.07;;;7.13;;
27543;SDS011;17996;51.056;3.656;2023-06-14T06:38:47;12.63;;;7.20;;
27543;SDS011;17996;51.056;3.656;2023-06-14T06:41:14;25.38;;;7.85;;
27543;SDS011;17996;51.056;3.656;2023-06-14T06:43:40;17.58;;;8.20;;
27543;SDS011;17996;51.056;3.656;2023-06-14T06:46:06;11.52;;;6.78;;
27543;SDS011;17996;51.056;3.656;2023-06-14T06:48:33;17.25;;;7.03;;
27543;SDS011;17996;51.056;3.656;2023-06-14T06:51:00;8.93;;;6.70;;
27543;SDS011;17996;51.056;3.656;2023-06-14T06:53:26;15.60;;;7.43;;
27543;SDS011;17996;51.056;3.656;2023-06-14T06:55:51;19.80;;;7.40;;
27543;SDS011;17996;51.056;3.656;2023-06-14T06:58:18;15.02;;;7.28;;
27543;SDS011;17996;51.056;3.656;2023-06-14T07:00:47;20.73;;;7.15;;
27543;SDS011;17996;51.056;3.656;2023-06-14T07:03:12;14.75;;;7.32;;
27543;SDS011;17996;51.056;3.656;2023-06-14T07:05:38;19.85;;;7.25;;
27543;SDS011;17996;51.056;3.656;2023-06-14T07:08:03;13.15;;;6.82;;
27543;SDS011;17996;51.056;3.656;2023-06-14T07:10:29;12.55;;;6.97;;
27543;SDS011;17996;51.056;3.656;2023-06-14T07:12:55;9.73;;;6.47;;
27543;SDS011;17996;51.056;3.656;2023-06-14T07:15:21;20.73;;;6.95;;
27543;SDS011;17996;51.056;3.656;2023-06-14T07:17:47;14.25;;;7.47;;
27543;SDS011;17996;51.056;3.656;2023-06-14T07:20:12;17.40;;;6.30;;
27543;SDS011;17996;51.056;3.656;2023-06-14T07:22:41;13.82;;;6.38;;
27543;SDS011;17996;51.056;3.656;2023-06-14T07:25:09;16.17;;;6.80;;
27543;SDS011;17996;51.056;3.656;2023-06-14T07:27:41;16.85;;;6.18;;
27543;SDS011;17996;51.056;3.656;2023-06-14T07:30:08;9.73;;;6.05;;
27543;SDS011;17996;51.056;3.656;2023-06-14T07:32:36;21.58;;;6.72;;
27543;SDS011;17996;51.056;3.656;2023-06-14T07:35:01;11.45;;;6.93;;
27543;SDS011;17996;51.056;3.656;2023-06-14T07:37:34;22.75;;;7.15;;
27543;SDS011;17996;51.056;3.656;2023-06-14T07:40:00;9.93;;;7.20;;
27543;SDS011;17996;51.056;3.656;2023-06-14T07:42:29;13.27;;;7.05;;
27543;SDS011;17996;51.056;3.656;2023-06-14T07:44:54;13.13;;;6.95;;
27543;SDS011;17996;51.056;3.656;2023-06-14T07:47:20;13.15;;;6.50;;
27543;SDS011;17996;51.056;3.656;2023-06-14T07:49:46;13.23;;;6.70;;
27543;SDS011;17996;51.056;3.656;2023-06-14T07:52:11;19.27;;;6.30;;
27543;SDS011;17996;51.056;3.656;2023-06-14T07:54:38;14.98;;;6.80;;
27543;SDS011;17996;51.056;3.656;2023-06-14T07:57:04;14.35;;;6.82;;
27543;SDS011;17996;51.056;3.656;2023-06-14T07:59:32;23.00;;;7.35;;
27543;SDS011;17996;51.056;3.656;2023-06-14T08:01:59;13.25;;;7.22;;
27543;SDS011;17996;51.056;3.656;2023-06-14T08:04:25;19.70;;;7.30;;
27543;SDS011;17996;51.056;3.656;2023-06-14T08:06:51;21.15;;;8.05;;
27543;SDS011;17996;51.056;3.656;2023-06-14T08:09:17;28.45;;;8.52;;
27543;SDS011;17996;51.056;3.656;2023-06-14T08:11:43;17.30;;;7.43;;
27543;SDS011;17996;51.056;3.656;2023-06-14T08:14:14;23.77;;;8.38;;
27543;SDS011;17996;51.056;3.656;2023-06-14T08:16:40;15.02;;;7.82;;
27543;SDS011;17996;51.056;3.656;2023-06-14T08:19:06;19.48;;;7.70;;
27543;SDS011;17996;51.056;3.656;2023-06-14T08:21:32;14.38;;;7.40;;
27543;SDS011;17996;51.056;3.656;2023-06-14T08:23:58;20.55;;;7.82;;
27543;SDS011;17996;51.056;3.656;2023-06-14T08:26:24;23.40;;;8.30;;
27543;SDS011;17996;51.056;3.656;2023-06-14T08:28:54;18.63;;;7.90;;
27543;SDS011;17996;51.056;3.656;2023-06-14T08:31:20;16.85;;;7.53;;
27543;SDS011;17996;51.056;3.656;2023-06-14T08:33:46;17.88;;;7.43;;
27543;SDS011;17996;51.056;3.656;2023-06-14T08:36:11;12.02;;;6.82;;
27543;SDS011;17996;51.056;3.656;2023-06-14T08:38:37;14.20;;;7.30;;
27543;SDS011;17996;51.056;3.656;2023-06-14T08:41:04;20.83;;;7.40;;
27543;SDS011;17996;51.056;3.656;2023-06-14T08:43:31;21.92;;;7.82;;
27543;SDS011;17996;51.056;3.656;2023-06-14T08:45:58;16.45;;;7.47;;
27543;SDS011;17996;51.056;3.656;2023-06-14T08:48:29;20.58;;;7.45;;
27543;SDS011;17996;51.056;3.656;2023-06-14T08:50:57;12.45;;;6.35;;
27543;SDS011;17996;51.056;3.656;2023-06-14T08:53:30;17.80;;;6.60;;
27543;SDS011;17996;51.056;3.656;2023-06-14T08:55:59;28.27;;;6.97;;
27543;SDS011;17996;51.056;3.656;2023-06-14T08:58:30;16.65;;;7.10;;
27543;SDS011;17996;51.056;3.656;2023-06-14T09:00:59;17.58;;;7.43;;
27543;SDS011;17996;51.056;3.656;2023-06-14T09:03:26;22.17;;;6.82;;
27543;SDS011;17996;51.056;3.656;2023-06-14T09:05:56;16.67;;;7.35;;
27543;SDS011;17996;51.056;3.656;2023-06-14T09:08:22;12.15;;;6.60;;
27543;SDS011;17996;51.056;3.656;2023-06-14T09:10:48;13.70;;;6.30;;
27543;SDS011;17996;51.056;3.656;2023-06-14T09:13:16;11.57;;;6.75;;
27543;SDS011;17996;51.056;3.656;2023-06-14T09:15:42;14.90;;;7.07;;
27543;SDS011;17996;51.056;3.656;2023-06-14T09:18:08;12.25;;;6.63;;
27543;SDS011;17996;51.056;3.656;2023-06-14T09:20:34;11.13;;;6.53;;
27543;SDS011;17996;51.056;3.656;2023-06-14T09:23:00;12.95;;;6.97;;
27543;SDS011;17996;51.056;3.656;2023-06-14T09:25:26;20.63;;;7.07;;
27543;SDS011;17996;51.056;3.656;2023-06-14T09:27:52;12.70;;;6.85;;
27543;SDS011;17996;51.056;3.656;2023-06-14T09:30:19;17.95;;;7.22;;
27543;SDS011;17996;51.056;3.656;2023-06-14T09:32:45;25.88;;;6.78;;
27543;SDS011;17996;51.056;3.656;2023-06-14T09:35:11;16.17;;;6.50;;
27543;SDS011;17996;51.056;3.656;2023-06-14T09:37:36;13.68;;;6.55;;
27543;SDS011;17996;51.056;3.656;2023-06-14T09:40:03;14.27;;;6.15;;
27543;SDS011;17996;51.056;3.656;2023-06-14T09:42:29;13.38;;;5.85;;
27543;SDS011;17996;51.056;3.656;2023-06-14T09:44:56;13.82;;;6.70;;
27543;SDS011;17996;51.056;3.656;2023-06-14T09:47:23;26.15;;;7.30;;
27543;SDS011;17996;51.056;3.656;2023-06-14T09:49:50;15.25;;;6.57;;
27543;SDS011;17996;51.056;3.656;2023-06-14T09:52:17;16.45;;;6.63;;
27543;SDS011;17996;51.056;3.656;2023-06-14T09:54:44;14.63;;;5.72;;
27543;SDS011;17996;51.056;3.656;2023-06-14T09:57:12;12.43;;;6.07;;
27543;SDS011;17996;51.056;3.656;2023-06-14T09:59:43;10.48;;;6.28;;
27543;SDS011;17996;51.056;3.656;2023-06-14T10:02:34;14.85;;;5.53;;
27543;SDS011;17996;51.056;3.656;2023-06-14T10:05:03;11.55;;;6.40;;
27543;SDS011;17996;51.056;3.656;2023-06-14T10:07:32;13.70;;;6.20;;
27543;SDS011;17996;51.056;3.656;2023-06-14T10:10:00;21.25;;;6.38;;
27543;SDS011;17996;51.056;3.656;2023-06-14T10:12:26;13.55;;;6.20;;
27543;SDS011;17996;51.056;3.656;2023-06-14T10:14:52;12.18;;;5.78;;
27543;SDS011;17996;51.056;3.656;2023-06-14T10:23:13;17.48;;;5.70;;
27543;SDS011;17996;51.056;3.656;2023-06-14T10:25:43;9.27;;;6.32;;
27543;SDS011;17996;51.056;3.656;2023-06-14T10:28:16;15.93;;;5.65;;
27543;SDS011;17996;51.056;3.656;2023-06-14T10:33:34;15.48;;;6.15;;
27543;SDS011;17996;51.056;3.656;2023-06-14T10:36:24;9.00;;;5.70;;
27543;SDS011;17996;51.056;3.656;2023-06-14T10:41:27;13.80;;;6.43;;
27543;SDS011;17996;51.056;3.656;2023-06-14T10:46:47;13.07;;;6.13;;
27543;SDS011;17996;51.056;3.656;2023-06-14T10:49:17;16.40;;;6.32;;
27543;SDS011;17996;51.056;3.656;2023-06-14T10:51:49;9.18;;;5.78;;
27543;SDS011;17996;51.056;3.656;2023-06-14T10:54:16;15.82;;;6.07;;
27543;SDS011;17996;51.056;3.656;2023-06-14T10:56:52;12.63;;;6.32;;
27543;SDS011;17996;51.056;3.656;2023-06-14T10:59:19;10.85;;;6.00;;
27543;SDS011;17996;51.056;3.656;2023-06-14T11:07:19;8.95;;;6.20;;
27543;SDS011;17996;51.056;3.656;2023-06-14T11:10:03;16.55;;;6.50;;
27543;SDS011;17996;51.056;3.656;2023-06-14T11:12:48;14.57;;;6.13;;
27543;SDS011;17996;51.056;3.656;2023-06-14T11:15:14;11.00;;;6.03;;
27543;SDS011;17996;51.056;3.656;2023-06-14T11:17:49;14.57;;;6.95;;
27543;SDS011;17996;51.056;3.656;2023-06-14T11:20:16;15.50;;;5.95;;
27543;SDS011;17996;51.056;3.656;2023-06-14T11:22:43;12.60;;;6.07;;
27543;SDS011;17996;51.056;3.656;2023-06-14T11:25:09;7.70;;;5.75;;
27543;SDS011;17996;51.056;3.656;2023-06-14T11:27:35;9.82;;;6.03;;
27543;SDS011;17996;51.056;3.656;2023-06-14T11:30:01;9.68;;;6.00;;
27543;SDS011;17996;51.056;3.656;2023-06-14T11:32:27;15.48;;;6.28;;
27543;SDS011;17996;51.056;3.656;2023-06-14T11:34:52;13.07;;;6.18;;
27543;SDS011;17996;51.056;3.656;2023-06-14T11:37:18;10.38;;;5.82;;
27543;SDS011;17996;51.056;3.656;2023-06-14T11:39:44;16.70;;;6.47;;
27543;SDS011;17996;51.056;3.656;2023-06-14T11:42:16;10.43;;;6.30;;
27543;SDS011;17996;51.056;3.656;2023-06-14T11:44:45;17.15;;;6.53;;
27543;SDS011;17996;51.056;3.656;2023-06-14T11:47:12;18.33;;;6.28;;
27543;SDS011;17996;51.056;3.656;2023-06-14T11:49:38;15.95;;;6.10;;
27543;SDS011;17996;51.056;3.656;2023-06-14T11:52:03;24.60;;;6.38;;
27543;SDS011;17996;51.056;3.656;2023-06-14T11:54:31;15.15;;;6.32;;
27543;SDS011;17996;51.056;3.656;2023-06-14T11:56:57;11.77;;;6.18;;
27543;SDS011;17996;51.056;3.656;2023-06-14T11:59:23;11.38;;;5.65;;
27543;SDS011;17996;51.056;3.656;2023-06-14T12:01:50;8.10;;;5.93;;
27543;SDS011;17996;51.056;3.656;2023-06-14T12:04:26;10.30;;;6.32;;
27543;SDS011;17996;51.056;3.656;2023-06-14T12:06:52;11.85;;;5.85;;
27543;SDS011;17996;51.056;3.656;2023-06-14T12:09:20;9.52;;;6.03;;
27543;SDS011;17996;51.056;3.656;2023-06-14T12:11:48;13.52;;;6.25;;
27543;SDS011;17996;51.056;3.656;2023-06-14T12:14:14;11.25;;;6.47;;
27543;SDS011;17996;51.056;3.656;2023-06-14T12:16:40;13.00;;;6.80;;
27543;SDS011;17996;51.056;3.656;2023-06-14T12:19:11;9.25;;;6.50;;
27543;SDS011;17996;51.056;3.656;2023-06-14T12:21:42;11.70;;;6.40;;
27543;SDS011;17996;51.056;3.656;2023-06-14T12:24:12;13.95;;;6.07;;
27543;SDS011;17996;51.056;3.656;2023-06-14T12:26:38;10.35;;;5.82;;
27543;SDS011;17996;51.056;3.656;2023-06-14T12:29:06;9.63;;;5.95;;
27543;SDS011;17996;51.056;3.656;2023-06-14T12:31:32;13.70;;;6.70;;
27543;SDS011;17996;51.056;3.656;2023-06-14T12:33:58;12.18;;;6.35;;
27543;SDS011;17996;51.056;3.656;2023-06-14T12:36:24;10.90;;;5.93;;
27543;SDS011;17996;51.056;3.656;2023-06-14T12:38:50;23.88;;;6.80;;
27543;SDS011;17996;51.056;3.656;2023-06-14T12:41:18;11.98;;;6.07;;
27543;SDS011;17996;51.056;3.656;2023-06-14T12:43:46;8.57;;;5.80;;
27543;SDS011;17996;51.056;3.656;2023-06-14T12:46:11;8.15;;;5.85;;
27543;SDS011;17996;51.056;3.656;2023-06-14T12:48:37;9.02;;;5.95;;
27543;SDS011;17996;51.056;3.656;2023-06-14T12:51:03;8.48;;;6.07;;
27543;SDS011;17996;51.056;3.656;2023-06-14T12:53:28;15.77;;;6.55;;
27543;SDS011;17996;51.056;3.656;2023-06-14T12:55:54;12.88;;;6.43;;
27543;SDS011;17996;51.056;3.656;2023-06-14T12:58:20;13.05;;;5.90;;
27543;SDS011;17996;51.056;3.656;2023-06-14T13:00:46;34.20;;;8.10;;
27543;SDS011;17996;51.056;3.656;2023-06-14T13:03:12;10.80;;;6.60;;
27543;SDS011;17996;51.056;3.656;2023-06-14T13:05:37;13.65;;;6.20;;
27543;SDS011;17996;51.056;3.656;2023-06-14T13:08:06;12.02;;;6.45;;
27543;SDS011;17996;51.056;3.656;2023-06-14T13:10:33;15.40;;;6.68;;
27543;SDS011;17996;51.056;3.656;2023-06-14T13:12:59;9.63;;;6.85;;
27543;SDS011;17996;51.056;3.656;2023-06-14T13:15:25;15.23;;;6.30;;
27543;SDS011;17996;51.056;3.656;2023-06-14T13:17:52;17.45;;;6.20;;
27543;SDS011;17996;51.056;3.656;2023-06-14T13:20:18;9.63;;;5.57;;
27543;SDS011;17996;51.056;3.656;2023-06-14T13:22:43;12.52;;;5.90;;
27543;SDS011;17996;51.056;3.656;2023-06-14T13:25:09;13.48;;;6.18;;
27543;SDS011;17996;51.056;3.656;2023-06-14T13:27:34;12.30;;;6.53;;
27543;SDS011;17996;51.056;3.656;2023-06-14T13:30:00;14.02;;;6.43;;
27543;SDS011;17996;51.056;3.656;2023-06-14T13:32:26;15.55;;;6.38;;
27543;SDS011;17996;51.056;3.656;2023-06-14T13:34:53;12.63;;;6.00;;
27543;SDS011;17996;51.056;3.656;2023-06-14T13:37:19;10.57;;;6.28;;
27543;SDS011;17996;51.056;3.656;2023-06-14T13:39:44;11.85;;;5.95;;
27543;SDS011;17996;51.056;3.656;2023-06-14T13:42:10;13.15;;;6.22;;
27543;SDS011;17996;51.056;3.656;2023-06-14T13:44:36;17.88;;;6.20;;
27543;SDS011;17996;51.056;3.656;2023-06-14T13:47:02;15.38;;;5.78;;
27543;SDS011;17996;51.056;3.656;2023-06-14T13:49:27;10.20;;;5.35;;
27543;SDS011;17996;51.056;3.656;2023-06-14T13:51:53;11.77;;;6.18;;
27543;SDS011;17996;51.056;3.656;2023-06-14T13:54:19;15.13;;;6.00;;
27543;SDS011;17996;51.056;3.656;2023-06-14T13:56:46;12.82;;;5.28;;
27543;SDS011;17996;51.056;3.656;2023-06-14T13:59:11;18.95;;;5.88;;
27543;SDS011;17996;51.056;3.656;2023-06-14T14:01:37;9.02;;;5.85;;
27543;SDS011;17996;51.056;3.656;2023-06-14T14:04:03;13.02;;;5.82;;
27543;SDS011;17996;51.056;3.656;2023-06-14T14:06:30;7.93;;;5.28;;
27543;SDS011;17996;51.056;3.656;2023-06-14T14:08:56;14.73;;;5.78;;
27543;SDS011;17996;51.056;3.656;2023-06-14T14:11:21;13.45;;;5.28;;
27543;SDS011;17996;51.056;3.656;2023-06-14T14:13:47;11.77;;;4.63;;
27543;SDS011;17996;51.056;3.656;2023-06-14T14:16:13;17.70;;;5.60;;
27543;SDS011;17996;51.056;3.656;2023-06-14T14:18:40;12.73;;;5.38;;
27543;SDS011;17996;51.056;3.656;2023-06-14T14:21:06;10.80;;;4.80;;
27543;SDS011;17996;51.056;3.656;2023-06-14T14:23:31;18.65;;;6.05;;
27543;SDS011;17996;51.056;3.656;2023-06-14T14:25:57;15.43;;;5.20;;
27543;SDS011;17996;51.056;3.656;2023-06-14T14:28:22;13.52;;;5.43;;
27543;SDS011;17996;51.056;3.656;2023-06-14T14:30:48;22.25;;;5.22;;
27543;SDS011;17996;51.056;3.656;2023-06-14T14:33:14;11.93;;;4.78;;
27543;SDS011;17996;51.056;3.656;2023-06-14T14:35:45;18.33;;;5.30;;
27543;SDS011;17996;51.056;3.656;2023-06-14T14:38:11;11.27;;;4.35;;
27543;SDS011;17996;51.056;3.656;2023-06-14T14:40:38;13.32;;;4.38;;
27543;SDS011;17996;51.056;3.656;2023-06-14T14:43:05;17.45;;;4.68;;
27543;SDS011;17996;51.056;3.656;2023-06-14T14:45:31;23.45;;;4.68;;
27543;SDS011;17996;51.056;3.656;2023-06-14T14:47:56;17.02;;;4.95;;
27543;SDS011;17996;51.056;3.656;2023-06-14T14:50:22;10.27;;;4.10;;
27543;SDS011;17996;51.056;3.656;2023-06-14T14:52:48;10.35;;;4.05;;
27543;SDS011;17996;51.056;3.656;2023-06-14T14:55:13;17.23;;;4.72;;
27543;SDS011;17996;51.056;3.656;2023-06-14T14:57:39;10.27;;;4.00;;
27543;SDS011;17996;51.056;3.656;2023-06-14T15:00:05;25.52;;;5.57;;
27543;SDS011;17996;51.056;3.656;2023-06-14T15:02:31;11.15;;;4.25;;
27543;SDS011;17996;51.056;3.656;2023-06-14T15:04:57;10.32;;;3.88;;
27543;SDS011;17996;51.056;3.656;2023-06-14T15:07:26;8.00;;;3.50;;